»·PEaware :: N733XB KSBA-KONT

N733XB :: KSBA-KONT

FLIGHT INFORMATION

Flight Status: Arrived
Operator: Privately registered:
United States
More flights under this callsign
Pilot: Maurice M. (7578)
Aircraft: CESSNA 172 SKYHAWK
(C172)
More flights by this aircraft type
Origin: KSBA Santa Barbara Mun
United States
Destination: KONT Ontario Intl
United States
More flights between these airports :: More routes between these airports
Route: KWANG CMA VNY V186 PDZ
File this flight plan on PilotEdge
Remarks: SBAN16
Altitude:
(Current/Filed)
5,000ft
Speed:
(Current/Filed)
110kts
Departed: 09-Jan-17 11:53 AM
Arrived: 09-Jan-17 02:31 PM
Distance/Time
Traveled:
113nm/2:38
Distance/Time
To Go:
Arrived

Flight Plot

Page will automatically refresh every two minutes.


Map Options




Map Legend


Flown Route
Filed Route
Departure Airport
Arrival Airport
Navaid (VOR, NDB)
Fix

Horizontal Profiles

Position Reports

Time Latitude Longitude Heading Altitude Ground
Speed
09-Jan-17 11:39 34.432322 -119.835074 67 14ft 0kts
09-Jan-17 11:40 34.432322 -119.835074 67 14ft 0kts
09-Jan-17 11:41 34.432322 -119.835074 67 14ft 0kts
09-Jan-17 11:42 34.432322 -119.835074 67 14ft 0kts
09-Jan-17 11:43 34.432322 -119.835074 67 14ft 0kts
09-Jan-17 11:44 34.432322 -119.835074 67 14ft 0kts
09-Jan-17 11:45 34.432322 -119.835074 67 14ft 0kts
09-Jan-17 11:46 34.432322 -119.835074 67 14ft 0kts
09-Jan-17 11:47 34.432322 -119.835074 67 14ft 0kts
09-Jan-17 11:48 34.432285 -119.834596 131 14ft 5kts
09-Jan-17 11:49 34.431738 -119.835318 211 14ft 2kts
09-Jan-17 11:50 34.429457 -119.835329 180 11ft 7kts
09-Jan-17 11:51 34.428534 -119.835197 147 11ft 0kts
09-Jan-17 11:52 34.428051 -119.835023 184 11ft 8kts
09-Jan-17 11:53 34.427333 -119.855329 269 231ft 107kts
09-Jan-17 11:54 34.420949 -119.890058 255 1047ft 106kts
09-Jan-17 11:55 34.415506 -119.912482 252 2022ft 82kts
09-Jan-17 11:56 34.409188 -119.933167 241 2933ft 80kts
09-Jan-17 11:57 34.395793 -119.933003 122 3661ft 83kts
09-Jan-17 11:58 34.389469 -119.914759 120 4387ft 84kts
09-Jan-17 11:59 34.385968 -119.895026 81 4988ft 87kts
09-Jan-17 12:00 34.383703 -119.873094 96 4941ft 120kts
09-Jan-17 12:01 34.378221 -119.849343 103 5001ft 121kts
09-Jan-17 12:02 34.372377 -119.824721 103 5001ft 122kts
09-Jan-17 12:03 34.366328 -119.799830 103 5001ft 123kts
09-Jan-17 12:04 34.360134 -119.774341 103 5001ft 123kts
09-Jan-17 12:05 34.354055 -119.749301 103 5001ft 123kts
09-Jan-17 12:06 34.348067 -119.724601 103 5001ft 123kts
09-Jan-17 12:07 34.342070 -119.699792 103 5002ft 123kts
09-Jan-17 12:08 34.335960 -119.674495 103 5002ft 123kts
09-Jan-17 12:09 34.329888 -119.649300 103 5003ft 123kts
09-Jan-17 12:10 34.323687 -119.623522 103 5003ft 123kts
09-Jan-17 12:11 34.317717 -119.598677 103 5004ft 123kts
09-Jan-17 12:12 34.311772 -119.573875 103 5005ft 123kts
09-Jan-17 12:13 34.305981 -119.549672 102 5006ft 123kts
09-Jan-17 12:14 34.300695 -119.527486 102 5006ft 123kts
09-Jan-17 12:15 34.295535 -119.505879 102 5007ft 123kts
09-Jan-17 12:16 34.290031 -119.482764 102 5008ft 123kts
09-Jan-17 12:17 34.284367 -119.458946 102 5008ft 123kts
09-Jan-17 12:18 34.279319 -119.435771 98 5009ft 122kts
09-Jan-17 12:19 34.275664 -119.413682 97 5009ft 122kts
09-Jan-17 12:20 34.272097 -119.392180 97 5010ft 122kts
09-Jan-17 12:21 34.268359 -119.370460 97 5010ft 123kts
09-Jan-17 12:22 34.264755 -119.349517 97 5011ft 123kts
09-Jan-17 12:23 34.261571 -119.329030 95 5011ft 122kts
09-Jan-17 12:24 34.259016 -119.312362 96 5040ft 120kts
09-Jan-17 12:25 34.255462 -119.289931 98 5057ft 121kts
09-Jan-17 12:26 34.251859 -119.270094 98 4999ft 125kts
09-Jan-17 12:27 34.247757 -119.249146 100 5027ft 124kts
09-Jan-17 12:28 34.243079 -119.227722 109 5024ft 127kts
09-Jan-17 12:29 34.237736 -119.206197 111 5013ft 126kts
09-Jan-17 12:30 34.231663 -119.180925 108 5028ft 126kts
09-Jan-17 12:31 34.226666 -119.158976 112 5010ft 125kts
09-Jan-17 12:32 34.221660 -119.140803 112 5030ft 125kts
09-Jan-17 12:33 34.216946 -119.118340 101 5003ft 130kts
09-Jan-17 12:34 34.214301 -119.091683 83 5012ft 132kts
09-Jan-17 12:35 34.215732 -119.069339 92 5058ft 126kts
09-Jan-17 12:36 34.216830 -119.050271 96 4999ft 130kts
09-Jan-17 12:37 34.216294 -119.026612 94 4975ft 128kts
09-Jan-17 12:38 34.216389 -119.003099 95 5009ft 125kts
09-Jan-17 12:39 34.216455 -118.979244 94 5026ft 126kts
09-Jan-17 12:40 34.217199 -118.955054 94 5036ft 124kts
09-Jan-17 12:41 34.216020 -118.931129 100 4947ft 132kts
09-Jan-17 12:42 34.215377 -118.907110 93 4987ft 127kts
09-Jan-17 12:43 34.215663 -118.883602 93 4992ft 128kts
09-Jan-17 12:44 34.215995 -118.859360 94 5018ft 127kts
09-Jan-17 12:45 34.216359 -118.833773 95 5017ft 128kts
09-Jan-17 12:46 34.216505 -118.805755 95 5003ft 128kts
09-Jan-17 12:47 34.216764 -118.777472 95 5004ft 127kts
09-Jan-17 12:48 34.217174 -118.750902 95 5004ft 126kts
09-Jan-17 12:49 34.217705 -118.726364 95 5016ft 124kts
09-Jan-17 12:50 34.218309 -118.703639 95 5023ft 124kts
09-Jan-17 12:51 34.218954 -118.682316 95 5024ft 123kts
09-Jan-17 12:52 34.219658 -118.661391 95 5024ft 122kts
09-Jan-17 12:53 34.220396 -118.641247 95 5024ft 121kts
09-Jan-17 12:54 34.221117 -118.622661 95 5024ft 120kts
09-Jan-17 12:55 34.221827 -118.605235 95 5024ft 119kts
09-Jan-17 12:56 34.222551 -118.587999 95 5024ft 118kts
09-Jan-17 12:57 34.223651 -118.562753 95 5024ft 117kts
09-Jan-17 12:58 34.225039 -118.531628 95 5026ft 116kts
09-Jan-17 12:59 34.225836 -118.513062 96 5027ft 115kts
09-Jan-17 13:00 34.224783 -118.493898 114 5039ft 110kts
09-Jan-17 13:01 34.217826 -118.477261 120 5045ft 108kts
09-Jan-17 13:02 34.211447 -118.458140 119 4981ft 110kts
09-Jan-17 13:03 34.205899 -118.438958 114 5032ft 107kts
09-Jan-17 13:04 34.200689 -118.420595 118 5028ft 107kts
09-Jan-17 13:05 34.194616 -118.401189 118 5036ft 107kts
09-Jan-17 13:06 34.188243 -118.380867 118 5037ft 107kts
09-Jan-17 13:07 34.181989 -118.360951 118 5038ft 107kts
09-Jan-17 13:08 34.175665 -118.340789 118 5039ft 107kts
09-Jan-17 13:09 34.169361 -118.320646 118 5040ft 107kts
09-Jan-17 13:10 34.163335 -118.301512 118 5041ft 107kts
09-Jan-17 13:11 34.157269 -118.282769 118 5040ft 109kts
09-Jan-17 13:12 34.151056 -118.264066 118 5039ft 108kts
09-Jan-17 13:13 34.144600 -118.245201 117 5039ft 107kts
09-Jan-17 13:14 34.138105 -118.226854 117 5039ft 106kts
09-Jan-17 13:15 34.131772 -118.209612 117 5039ft 105kts
09-Jan-17 13:16 34.125520 -118.193320 117 5039ft 104kts
09-Jan-17 13:17 34.118837 -118.176678 118 5039ft 104kts
09-Jan-17 13:18 34.110955 -118.160424 117 5037ft 116kts
09-Jan-17 13:19 34.103346 -118.142103 98 5145ft 112kts
09-Jan-17 13:20 34.095081 -118.121350 125 4946ft 126kts
09-Jan-17 13:21 34.084258 -118.102553 102 5003ft 119kts
09-Jan-17 13:22 34.077790 -118.080189 100 4982ft 121kts
09-Jan-17 13:23 34.071384 -118.057389 105 5000ft 120kts
09-Jan-17 13:24 34.064841 -118.034583 100 4900ft 126kts
09-Jan-17 13:25 34.058775 -118.012348 102 4984ft 118kts
09-Jan-17 13:26 34.052721 -117.989492 102 4970ft 120kts
09-Jan-17 13:27 34.046494 -117.965851 102 4954ft 120kts
09-Jan-17 13:28 34.039653 -117.939642 102 4939ft 119kts
09-Jan-17 13:29 34.033347 -117.915203 102 4926ft 118kts
09-Jan-17 13:30 34.027549 -117.893092 107 4914ft 118kts
09-Jan-17 13:31 34.019597 -117.866834 106 4906ft 118kts
09-Jan-17 13:32 34.012320 -117.842795 106 4900ft 117kts
09-Jan-17 13:33 34.005052 -117.818637 106 4913ft 117kts
09-Jan-17 13:34 33.998074 -117.794986 106 4933ft 117kts
09-Jan-17 13:35 33.992572 -117.775974 106 4948ft 118kts
09-Jan-17 13:36 33.986909 -117.756124 106 4963ft 118kts
09-Jan-17 13:37 33.981063 -117.735362 106 4976ft 119kts
09-Jan-17 13:38 33.975146 -117.714119 106 4989ft 119kts
09-Jan-17 13:39 33.969149 -117.692415 106 5000ft 120kts
09-Jan-17 13:40 33.963185 -117.670753 106 5010ft 120kts
09-Jan-17 13:41 33.957073 -117.648584 106 5019ft 120kts
09-Jan-17 13:42 33.950768 -117.625836 106 5027ft 120kts
09-Jan-17 13:43 33.944113 -117.602082 106 5033ft 120kts
09-Jan-17 13:44 33.942869 -117.597678 106 5034ft 120kts
09-Jan-17 14:00 34.011742 -117.685615 165 4248ft 72kts
09-Jan-17 14:01 33.997766 -117.674114 145 4794ft 94kts
09-Jan-17 14:02 33.984390 -117.658232 134 5188ft 116kts
09-Jan-17 14:03 33.970660 -117.637040 107 5406ft 124kts
09-Jan-17 14:04 33.961934 -117.608412 118 5238ft 129kts
09-Jan-17 14:05 33.947377 -117.583685 131 5090ft 129kts
09-Jan-17 14:06 33.933783 -117.559856 122 5093ft 124kts
09-Jan-17 14:07 33.919817 -117.535369 104 5097ft 119kts
09-Jan-17 14:08 33.925097 -117.514283 53 5048ft 107kts
09-Jan-17 14:09 33.932917 -117.498624 52 5199ft 97kts
09-Jan-17 14:10 33.941158 -117.482029 56 5110ft 119kts
09-Jan-17 14:11 33.948775 -117.461866 49 5188ft 109kts
09-Jan-17 14:12 33.959022 -117.445886 49 4984ft 106kts
09-Jan-17 14:13 33.967409 -117.429923 57 5022ft 102kts
09-Jan-17 14:14 33.974550 -117.412055 62 5118ft 106kts
09-Jan-17 14:15 33.981065 -117.392352 55 5082ft 107kts
09-Jan-17 14:16 33.987187 -117.375068 65 5232ft 99kts
09-Jan-17 14:17 33.995371 -117.358808 53 5126ft 99kts
09-Jan-17 14:18 34.003336 -117.343305 55 5089ft 94kts
09-Jan-17 14:19 34.019495 -117.344818 340 4636ft 88kts
09-Jan-17 14:20 34.036102 -117.348910 353 4440ft 77kts
09-Jan-17 14:21 34.050222 -117.356831 330 4391ft 74kts
09-Jan-17 14:22 34.055236 -117.380189 272 3744ft 98kts
09-Jan-17 14:23 34.057524 -117.410213 280 3344ft 82kts
09-Jan-17 14:24 34.056575 -117.436874 270 3122ft 85kts
09-Jan-17 14:25 34.056507 -117.462746 271 2901ft 83kts
09-Jan-17 14:26 34.056321 -117.487168 262 2429ft 70kts
09-Jan-17 14:27 34.055808 -117.512575 272 1674ft 83kts
09-Jan-17 14:28 34.054822 -117.535682 270 1472ft 73kts
09-Jan-17 14:29 34.054966 -117.562425 270 1347ft 79kts
09-Jan-17 14:30 34.054948 -117.584932 269 931ft 47kts
09-Jan-17 14:31 34.054011 -117.589964 231 917ft 7kts
09-Jan-17 14:32 34.053842 -117.592780 270 918ft 30kts
09-Jan-17 14:33 34.053573 -117.599097 230 914ft 10kts

Navigation Log

Ident Type
1. KSBA Airport
2. KWANG Fix
3. CMA Navaid
4. VNY Navaid
5. DARTS Fix
6. PURMS Fix
7. ELMOO Fix
8. ITSME Fix
9. PIRRO Fix
10. ADAMM Fix
11. BAYJY Fix
12. TIFNI Fix
13. PDZ Navaid
14. KONT Airport